Time;durP1;ratioP1;P1;durP2;ratioP2;P2;SDS_P1;SDS_P2;PMS_P1;PMS_P2;Temp;Humidity;BMP_temperature;BMP_pressure;BME280_temperature;BME280_humidity;BME280_pressure;Samples;Min_cycle;Max_cycle;Signal;HPM_P1;HPM_P2
2022/04/05 00:01:00;;;;;;;12.02;5.20;;;;;;;0.68;47.50;98731.69;5015480;28;20045;-86
2022/04/05 00:04:14;;;;;;;12.32;5.88;;;;;;;0.13;47.66;98655.78;5000448;28;20062;-90
2022/04/05 00:06:41;;;;;;;12.35;5.78;;;;;;;0.31;47.46;98694.78;4999386;28;20030;-87
2022/04/05 00:09:09;;;;;;;12.20;5.75;;;;;;;0.74;47.46;98754.97;4968798;28;20038;-88
2022/04/05 00:11:36;;;;;;;11.73;6.25;;;;;;;0.52;47.89;98725.31;5000696;28;20043;-88
2022/04/05 00:14:04;;;;;;;14.20;6.10;;;;;;;0.51;47.94;98732.97;4967945;28;20092;-87
2022/04/05 00:16:31;;;;;;;11.20;6.05;;;;;;;0.57;48.03;98754.53;4952562;28;20058;-88
2022/04/05 00:18:58;;;;;;;14.23;5.78;;;;;;;0.19;48.42;98691.91;5000564;28;20054;-87
2022/04/05 00:21:29;;;;;;;11.98;5.85;;;;;;;0.16;48.50;98733.78;4986258;28;20055;-90
2022/04/05 00:23:56;;;;;;;10.52;5.45;;;;;;;0.03;48.37;98708.59;4982085;28;20069;-88
2022/04/05 00:26:23;;;;;;;10.43;5.60;;;;;;;-0.04;48.21;98689.59;4963411;28;20065;-89
2022/04/05 00:28:50;;;;;;;12.00;5.75;;;;;;;-0.48;48.52;98671.28;4961142;28;20050;-92
2022/04/05 00:31:17;;;;;;;11.43;5.80;;;;;;;0.18;48.97;98757.81;4978691;28;20054;-89
2022/04/05 00:33:44;;;;;;;10.45;5.45;;;;;;;-0.14;48.84;98720.13;4980733;28;20051;-91
2022/04/05 00:36:12;;;;;;;9.45;5.30;;;;;;;-0.03;48.82;98739.25;4945621;28;20058;-91
2022/04/05 00:38:39;;;;;;;9.13;5.43;;;;;;;-0.48;49.22;98647.31;4946976;28;20082;-90
2022/04/05 00:41:48;;;;;;;;;;;;;;;;;;;;;
2022/04/05 00:44:46;;;;;;;9.45;4.63;;;;;;;0.12;48.62;98747.38;4985412;28;20050;-91
2022/04/05 00:48:06;;;;;;;9.88;4.90;;;;;;;-0.15;48.65;98683.31;4959606;28;20058;-89
2022/04/05 00:51:01;;;;;;;6.93;3.95;;;;;;;-0.20;48.23;98700.28;4969548;28;20078;-90
2022/04/05 00:53:47;;;;;;;;;;;;;;;;;;;;;
2022/04/05 00:56:22;;;;;;;7.15;4.35;;;;;;;-0.62;48.38;98629.00;4964584;28;20051;-91
2022/04/05 00:58:53;;;;;;;7.70;4.15;;;;;;;-0.18;48.50;98651.56;4979741;28;20059;-91
2022/04/05 01:01:30;;;;;;;9.40;4.68;;;;;;;-0.68;48.38;98546.75;4984155;28;20051;-89
2022/04/05 01:03:58;;;;;;;7.78;4.45;;;;;;;0.47;48.25;98746.56;4983698;28;20055;-91
2022/04/05 01:06:28;;;;;;;8.32;4.35;;;;;;;0.52;48.61;98729.56;4960126;28;20512;-88
2022/04/05 01:08:56;;;;;;;6.90;4.20;;;;;;;0.34;48.27;98692.28;4960469;28;20512;-88
2022/04/05 01:11:24;;;;;;;6.40;4.07;;;;;;;0.14;48.47;98654.97;4960260;28;20105;-87
2022/04/05 01:13:53;;;;;;;6.03;4.05;;;;;;;0.27;47.83;98671.56;4978358;28;20070;-89
2022/04/05 01:16:20;;;;;;;7.68;4.10;;;;;;;0.66;47.98;98723.06;4946079;28;20054;-89
2022/04/05 01:18:49;;;;;;;6.78;4.35;;;;;;;0.30;48.19;98648.50;4982901;28;20051;-89
2022/04/05 01:21:17;;;;;;;6.20;3.80;;;;;;;0.40;47.67;98677.03;4973451;28;20159;-89
2022/04/05 01:24:13;;;;;;;5.35;3.60;;;;;;;0.57;47.85;98715.13;4975830;28;20051;-92
2022/04/05 01:26:56;;;;;;;7.10;4.28;;;;;;;-0.14;48.01;98635.41;4963101;28;20057;-90
2022/04/05 01:29:40;;;;;;;;;;;;;;;;;;;;;
2022/04/05 01:32:30;;;;;;;8.52;4.03;;;;;;;-0.53;47.53;98547.16;4946434;28;20063;-94
2022/04/05 01:35:08;;;;;;;8.70;4.30;;;;;;;0.13;47.53;98684.91;4947300;28;20501;-91
2022/04/05 01:37:57;;;;;;;9.38;3.85;;;;;;;-0.32;47.87;98622.94;4960016;28;20062;-93
2022/04/05 01:40:27;;;;;;;7.28;4.30;;;;;;;-0.23;47.59;98600.97;4970594;28;20047;-93
2022/04/05 01:42:56;;;;;;;9.77;4.97;;;;;;;-0.54;47.91;98552.22;4960610;28;20074;-92
2022/04/05 01:45:23;;;;;;;8.50;4.60;;;;;;;0.67;47.93;98717.09;4959037;28;20109;-89
2022/04/05 01:47:54;;;;;;;9.80;5.57;;;;;;;0.72;47.40;98719.78;4982041;28;20065;-90
2022/04/05 01:50:27;;;;;;;9.48;4.88;;;;;;;-0.54;47.80;98527.44;4963523;28;20082;-91
2022/04/05 01:53:06;;;;;;;10.77;5.43;;;;;;;0.22;47.79;98658.59;4932008;28;20439;-90
2022/04/05 01:55:33;;;;;;;11.68;5.72;;;;;;;0.34;48.20;98684.56;4978768;28;20038;-88
2022/04/05 01:58:02;;;;;;;10.38;5.53;;;;;;;0.56;47.67;98737.41;4997782;28;20033;-89
2022/04/05 02:00:29;;;;;;;11.93;6.13;;;;;;;0.41;48.09;98675.34;4976010;28;20153;-89
2022/04/05 02:02:56;;;;;;;10.77;5.75;;;;;;;0.28;48.08;98651.06;4977031;28;20047;-89
2022/04/05 02:05:23;;;;;;;10.00;5.72;;;;;;;0.40;48.11;98692.44;4942474;28;20444;-89
2022/04/05 02:07:51;;;;;;;10.13;5.82;;;;;;;0.30;48.06;98669.94;4958655;28;20051;-88
2022/04/05 02:10:18;;;;;;;13.55;6.15;;;;;;;0.48;48.15;98717.47;4975357;28;20448;-88
2022/04/05 02:12:46;;;;;;;9.63;5.55;;;;;;;0.48;48.13;98705.50;4976082;28;20053;-87
2022/04/05 02:15:33;;;;;;;8.00;5.00;;;;;;;0.02;48.43;98624.69;4944317;28;20058;-89
2022/04/05 02:18:04;;;;;;;10.02;5.25;;;;;;;0.39;48.48;98702.69;4958291;28;20046;-89
2022/04/05 02:20:33;;;;;;;8.13;5.50;;;;;;;0.34;48.45;98707.69;4946980;28;20070;-89
2022/04/05 02:23:04;;;;;;;8.75;4.65;;;;;;;0.12;48.78;98667.75;4946559;28;20105;-91
2022/04/05 02:26:01;;;;;;;8.00;4.85;;;;;;;0.18;48.91;98709.00;4947153;28;20046;-90
2022/04/05 02:28:33;;;;;;;9.00;4.30;;;;;;;-0.05;48.91;98641.63;4931157;28;20046;-89
2022/04/05 02:31:05;;;;;;;8.68;4.28;;;;;;;-0.31;49.17;98610.16;4947753;28;20062;-87
2022/04/05 02:33:56;;;;;;;9.65;4.57;;;;;;;0.27;48.69;98694.66;4952943;28;20507;-92
2022/04/05 02:37:27;;;;;;;8.38;4.53;;;;;;;-0.83;49.28;98544.63;4950490;28;20093;-89
2022/04/05 02:40:11;;;;;;;10.00;5.13;;;;;;;-0.70;48.83;98523.63;4933147;28;20051;-90
2022/04/05 02:42:39;;;;;;;10.57;4.63;;;;;;;0.16;49.42;98664.44;4941739;28;20058;-89
2022/04/05 02:45:09;;;;;;;10.60;4.82;;;;;;;-0.10;49.52;98643.22;4957799;28;20055;-87
2022/04/05 02:47:37;;;;;;;10.35;5.03;;;;;;;0.29;49.59;98704.16;4925772;28;20446;-87
2022/04/05 02:50:05;;;;;;;12.00;4.70;;;;;;;-0.11;50.26;98636.34;4987275;28;20527;-87
2022/04/05 02:52:33;;;;;;;6.60;3.85;;;;;;;-0.31;49.67;98584.50;4994242;28;20074;-87
2022/04/05 02:55:04;;;;;;;8.77;4.18;;;;;;;0.10;50.10;98660.84;4977685;28;20145;-92
2022/04/05 02:57:45;;;;;;;7.45;3.97;;;;;;;-1.06;50.08;98477.34;4959463;28;20054;-89
2022/04/05 03:00:19;;;;;;;8.15;4.00;;;;;;;0.10;49.91;98654.00;4957123;28;20117;-88
2022/04/05 03:02:49;;;;;;;5.60;3.75;;;;;;;0.05;50.17;98650.47;4945071;28;20439;-90
2022/04/05 03:05:21;;;;;;;6.70;4.05;;;;;;;0.10;50.13;98658.28;4962260;28;20151;-90
2022/04/05 03:07:53;;;;;;;8.43;4.45;;;;;;;-0.10;50.61;98630.38;4932156;28;20622;-87
2022/04/05 03:10:21;;;;;;;8.55;4.20;;;;;;;-0.71;50.32;98532.16;4963513;28;20051;-89
2022/04/05 03:12:52;;;;;;;9.90;4.82;;;;;;;0.19;50.38;98682.50;4968813;28;20058;-88
2022/04/05 03:15:20;;;;;;;8.75;4.85;;;;;;;-0.48;50.62;98606.28;4953564;28;20113;-91
2022/04/05 03:17:50;;;;;;;8.18;4.53;;;;;;;-0.26;51.10;98624.00;4926312;28;20050;-89
2022/04/05 03:20:22;;;;;;;10.93;4.43;;;;;;;-0.35;51.00;98612.59;4994175;28;20122;-90
2022/04/05 03:22:55;;;;;;;7.93;4.25;;;;;;;-0.50;51.09;98590.81;4946395;28;20054;-89
2022/04/05 03:25:24;;;;;;;11.48;4.70;;;;;;;-0.45;51.65;98601.25;4980703;28;20054;-89
2022/04/05 03:27:53;;;;;;;8.98;4.10;;;;;;;-0.56;51.29;98597.50;4966280;28;20053;-87
2022/04/05 03:30:23;;;;;;;;;;;;;;;-0.11;51.02;98679.13;4977830;28;20055;-89
2022/04/05 03:32:53;;;;;;;9.35;4.22;;;;;;;0.01;51.16;98676.03;4969481;28;19949;-88
2022/04/05 03:38:27;;;;;;;7.18;3.55;;;;;;;0.05;51.41;98699.25;4979785;28;20098;-88
2022/04/05 03:40:55;;;;;;;8.55;4.07;;;;;;;-0.61;51.02;98571.72;4981659;28;20065;-91
2022/04/05 03:43:23;;;;;;;9.55;4.03;;;;;;;0.05;51.22;98671.00;4965819;28;20054;-88
2022/04/05 03:45:54;;;;;;;8.32;4.63;;;;;;;-0.51;51.19;98581.41;4986588;28;20054;-89
2022/04/05 03:48:23;;;;;;;7.07;3.88;;;;;;;-0.21;50.82;98608.72;4983129;28;20057;-89
2022/04/05 03:50:51;;;;;;;8.73;4.70;;;;;;;-0.09;50.64;98614.13;4952099;28;20054;-92
2022/04/05 03:53:20;;;;;;;5.95;4.05;;;;;;;-0.17;50.89;98607.06;4964592;28;20141;-88
2022/04/05 03:55:49;;;;;;;7.72;4.30;;;;;;;0.01;50.75;98638.38;4948055;28;20126;-87
2022/04/05 03:58:16;;;;;;;9.07;4.22;;;;;;;0.10;50.36;98618.06;4981224;28;20463;-84
2022/04/05 04:00:44;;;;;;;8.63;4.13;;;;;;;0.51;49.99;98661.88;4983638;28;20149;-91
2022/04/05 04:03:24;;;;;;;10.00;4.43;;;;;;;0.47;49.51;98605.22;4979125;28;20074;-87
2022/04/05 04:05:53;;;;;;;7.55;3.55;;;;;;;1.12;48.90;98674.41;4980481;28;20136;-85
2022/04/05 04:08:22;;;;;;;6.97;4.10;;;;;;;0.91;48.55;98603.69;4966065;28;20562;-90
2022/04/05 04:10:51;;;;;;;10.27;4.25;;;;;;;0.96;48.56;98590.91;4931781;28;20470;-89
2022/04/05 04:13:21;;;;;;;8.18;4.10;;;;;;;1.53;48.06;98667.56;4978215;28;20061;-85
2022/04/05 04:15:51;;;;;;;9.63;4.05;;;;;;;1.68;47.95;98653.25;4978090;28;20435;-87
2022/04/05 04:18:19;;;;;;;6.60;3.97;;;;;;;1.89;47.40;98665.69;4995522;28;20141;-88
2022/04/05 04:20:50;;;;;;;5.55;3.85;;;;;;;1.82;47.15;98651.81;4947446;28;20054;-86
2022/04/05 04:23:19;;;;;;;6.07;3.30;;;;;;;2.10;47.14;98672.94;4979380;28;20074;-87
2022/04/05 04:25:50;;;;;;;7.25;4.05;;;;;;;2.11;46.65;98654.94;4981878;28;20050;-85
2022/04/05 04:28:18;;;;;;;8.85;3.90;;;;;;;2.14;46.20;98633.50;4981121;28;20069;-85
2022/04/05 04:30:45;;;;;;;6.95;4.40;;;;;;;2.35;46.15;98679.41;5019430;28;20042;-85
2022/04/05 04:33:13;;;;;;;10.25;4.10;;;;;;;2.52;45.86;98679.66;4994554;28;20436;-85
2022/04/05 04:35:42;;;;;;;8.23;3.80;;;;;;;2.63;45.67;98653.22;4977779;28;20054;-83
2022/04/05 04:38:09;;;;;;;5.60;3.77;;;;;;;2.73;45.31;98650.78;4978226;28;20051;-86
2022/04/05 04:40:36;;;;;;;8.90;4.15;;;;;;;2.84;45.39;98613.16;4976784;28;20504;-86
2022/04/05 04:43:03;;;;;;;12.82;4.13;;;;;;;3.42;44.35;98669.81;4960603;28;20050;-85
2022/04/05 04:45:31;;;;;;;8.38;4.07;;;;;;;3.20;44.20;98615.34;4983912;28;20065;-83
2022/04/05 04:47:58;;;;;;;8.15;3.65;;;;;;;3.71;43.79;98659.84;4958138;28;20059;-84
2022/04/05 04:50:25;;;;;;;9.25;4.07;;;;;;;3.78;44.00;98650.44;4975441;28;20058;-85
2022/04/05 04:52:51;;;;;;;8.45;4.05;;;;;;;3.63;43.29;98604.66;4975505;28;20051;-85
2022/04/05 04:55:19;;;;;;;9.10;4.40;;;;;;;3.78;43.52;98616.88;4956833;28;20145;-85
2022/04/05 04:57:45;;;;;;;8.55;4.18;;;;;;;4.00;43.25;98655.03;4973945;28;20047;-85
2022/04/05 05:00:13;;;;;;;7.03;4.15;;;;;;;3.48;43.00;98562.34;4975415;28;20058;-86
2022/04/05 05:02:58;;;;;;;7.97;4.97;;;;;;;3.99;43.35;98653.28;4976177;28;20054;-86
2022/04/05 05:05:25;;;;;;;8.57;4.43;;;;;;;4.01;43.05;98637.78;4984899;28;20046;-87
2022/04/05 05:07:52;;;;;;;7.75;4.35;;;;;;;3.81;43.52;98584.19;4993346;28;20157;-84
2022/04/05 05:10:21;;;;;;;10.07;4.55;;;;;;;4.19;43.17;98643.13;4990687;28;20507;-85
2022/04/05 05:12:48;;;;;;;6.47;4.18;;;;;;;4.34;43.12;98638.94;4976874;28;20070;-83
2022/04/05 05:15:18;;;;;;;8.75;4.40;;;;;;;4.40;42.14;98633.84;4995179;28;20105;-84
2022/04/05 05:17:46;;;;;;;8.07;4.40;;;;;;;4.70;41.97;98639.25;4994154;28;20534;-86
2022/04/05 05:20:15;;;;;;;9.18;4.28;;;;;;;4.61;42.37;98634.00;4996562;28;20078;-84
2022/04/05 05:22:43;;;;;;;8.13;3.92;;;;;;;4.48;42.35;98609.78;4994525;28;20157;-85
2022/04/05 05:25:10;;;;;;;9.93;4.20;;;;;;;4.71;41.93;98628.06;4977552;28;20053;-82
2022/04/05 05:27:38;;;;;;;5.82;4.00;;;;;;;5.08;41.86;98632.59;4994427;28;20054;-86
2022/04/05 05:30:07;;;;;;;9.63;4.50;;;;;;;5.21;41.29;98623.19;4992802;28;20057;-86
2022/04/05 05:32:42;;;;;;;6.55;4.10;;;;;;;5.12;41.21;98640.38;4997617;28;20073;-85
2022/04/05 05:35:09;;;;;;;7.15;3.80;;;;;;;5.06;41.50;98626.56;4995708;28;20133;-84
2022/04/05 05:37:37;;;;;;;11.30;4.47;;;;;;;4.85;41.41;98627.28;4979225;28;20132;-85
2022/04/05 05:40:05;;;;;;;7.68;4.00;;;;;;;5.02;41.63;98625.66;4992398;28;20412;-84
2022/04/05 05:42:33;;;;;;;8.05;3.60;;;;;;;5.19;42.04;98627.47;4993263;28;20478;-84
2022/04/05 05:45:00;;;;;;;8.35;4.05;;;;;;;4.86;41.28;98593.66;4994207;28;20054;-87
2022/04/05 05:47:29;;;;;;;6.32;4.22;;;;;;;5.08;41.66;98625.69;4972082;28;20571;-85
2022/04/05 05:49:55;;;;;;;9.90;3.90;;;;;;;5.07;41.89;98608.41;4975508;28;20057;-84
2022/04/05 05:52:22;;;;;;;8.38;4.10;;;;;;;5.07;41.78;98607.56;4959794;28;20072;-84
2022/04/05 05:54:50;;;;;;;8.05;4.18;;;;;;;5.26;41.88;98637.00;4994186;28;20050;-83
2022/04/05 05:57:17;;;;;;;9.15;4.07;;;;;;;5.21;41.57;98621.44;4977142;28;20136;-83
2022/04/05 05:59:44;;;;;;;7.03;3.80;;;;;;;5.12;42.14;98630.03;4991814;28;20054;-86
2022/04/05 06:02:16;;;;;;;11.45;4.53;;;;;;;5.25;41.84;98609.41;4994774;28;20046;-85
2022/04/05 06:07:45;;;;;;;8.55;3.67;;;;;;;5.02;41.41;98568.72;4994639;28;20042;-82
2022/04/05 06:10:13;;;;;;;8.82;4.18;;;;;;;4.94;42.40;98567.81;4979344;28;20084;-85
2022/04/05 06:12:42;;;;;;;11.18;4.22;;;;;;;4.78;41.57;98545.31;4980245;28;20050;-84
2022/04/05 06:15:12;;;;;;;8.68;3.85;;;;;;;4.96;41.80;98588.53;4995589;28;20054;-86
2022/04/05 06:17:45;;;;;;;8.05;3.65;;;;;;;5.02;41.90;98598.91;4977112;28;20500;-86
2022/04/05 06:20:16;;;;;;;6.57;3.78;;;;;;;5.15;42.05;98618.81;4958448;28;20046;-84
2022/04/05 06:22:44;;;;;;;5.18;3.50;;;;;;;5.09;41.68;98549.75;4960627;28;20084;-85
2022/04/05 06:25:14;;;;;;;8.23;3.97;;;;;;;5.60;42.07;98611.25;4994072;28;20503;-84
2022/04/05 06:27:45;;;;;;;7.40;3.72;;;;;;;5.82;41.29;98592.31;4994034;28;20089;-85
2022/04/05 06:30:14;;;;;;;7.88;3.83;;;;;;;5.53;40.91;98561.16;4976254;28;20104;-85
2022/04/05 06:32:41;;;;;;;8.25;4.03;;;;;;;5.96;40.77;98592.38;4959221;28;20081;-86
2022/04/05 06:35:10;;;;;;;8.50;3.75;;;;;;;6.32;40.90;98599.34;4977522;28;20523;-86
2022/04/05 06:37:38;;;;;;;6.22;3.58;;;;;;;6.69;39.98;98599.31;4996668;28;20057;-83
2022/04/05 06:40:07;;;;;;;7.70;3.90;;;;;;;6.49;39.71;98549.16;5003098;28;20062;-85
2022/04/05 06:42:35;;;;;;;5.78;3.75;;;;;;;6.46;39.59;98529.28;4990706;28;20065;-86
2022/04/05 06:45:03;;;;;;;7.30;3.72;;;;;;;6.83;39.32;98590.63;5007543;28;20078;-84
2022/04/05 06:47:30;;;;;;;5.70;3.92;;;;;;;6.82;39.34;98573.31;4989230;28;20050;-84
2022/04/05 06:49:57;;;;;;;5.88;3.92;;;;;;;7.13;38.94;98602.69;5006680;28;20109;-83
2022/04/05 06:52:24;;;;;;;6.45;3.75;;;;;;;6.94;39.98;98578.47;4985769;28;20411;-83
2022/04/05 06:54:51;;;;;;;6.57;4.13;;;;;;;6.71;39.83;98583.72;5004185;28;20050;-85
2022/04/05 06:57:18;;;;;;;7.88;3.75;;;;;;;6.52;39.91;98554.34;5002321;28;20066;-84
2022/04/05 06:59:49;;;;;;;6.75;3.78;;;;;;;6.47;39.86;98562.13;5002025;28;20278;-82
2022/04/05 07:02:16;;;;;;;8.07;4.28;;;;;;;6.53;39.71;98543.09;5010359;28;20026;-81
2022/04/05 07:04:43;;;;;;;9.57;4.03;;;;;;;6.64;39.85;98603.63;5006059;28;20074;-83
2022/04/05 07:07:10;;;;;;;6.72;3.90;;;;;;;6.70;39.96;98590.63;4979318;28;20077;-83
2022/04/05 07:09:37;;;;;;;7.00;4.03;;;;;;;6.84;39.76;98543.91;4997824;28;20504;-83
2022/04/05 07:12:07;;;;;;;9.23;4.03;;;;;;;6.61;39.08;98537.91;4980603;28;20101;-84
2022/04/05 07:14:34;;;;;;;7.93;4.07;;;;;;;6.71;39.66;98569.03;4998168;28;20109;-84
2022/04/05 07:17:01;;;;;;;8.48;3.83;;;;;;;7.09;39.16;98568.03;4979799;28;20319;-83
2022/04/05 07:19:28;;;;;;;8.38;4.50;;;;;;;7.32;39.14;98574.91;4981456;28;20544;-82
2022/04/05 07:21:55;;;;;;;6.43;3.90;;;;;;;7.49;38.41;98575.69;4964130;28;20556;-85
2022/04/05 07:24:22;;;;;;;7.32;3.88;;;;;;;7.30;38.71;98563.66;4979971;28;20081;-84
2022/04/05 07:26:50;;;;;;;6.15;3.53;;;;;;;6.98;38.95;98512.69;4996524;28;20050;-87
2022/04/05 07:29:17;;;;;;;5.75;3.35;;;;;;;7.63;38.74;98557.41;4978978;28;20423;-83
2022/04/05 07:31:45;;;;;;;5.32;3.70;;;;;;;7.55;38.19;98526.28;4979442;28;20099;-83
2022/04/05 07:34:12;;;;;;;7.05;4.10;;;;;;;7.52;38.26;98565.28;4979355;28;20097;-83
2022/04/05 07:36:40;;;;;;;6.65;3.78;;;;;;;7.14;38.27;98505.69;4979162;28;20054;-84
2022/04/05 07:39:08;;;;;;;8.00;4.68;;;;;;;6.83;38.76;98473.81;4981972;28;20054;-84
2022/04/05 07:41:35;;;;;;;9.07;4.22;;;;;;;7.22;38.26;98487.50;4984264;28;20061;-84
2022/04/05 07:44:03;;;;;;;8.48;4.75;;;;;;;7.76;38.40;98553.88;4979345;28;20058;-84
2022/04/05 07:46:31;;;;;;;5.75;4.03;;;;;;;7.24;37.97;98480.56;4947234;28;20069;-84
2022/04/05 07:48:58;;;;;;;6.00;3.95;;;;;;;7.55;38.11;98536.69;4979043;28;20184;-86
2022/04/05 07:51:26;;;;;;;8.20;4.50;;;;;;;7.68;38.55;98550.47;4996361;28;20105;-86
2022/04/05 07:53:53;;;;;;;8.63;4.50;;;;;;;7.89;37.92;98527.78;4996198;28;20061;-85
2022/04/05 07:56:20;;;;;;;8.63;4.70;;;;;;;7.89;37.44;98541.66;4996366;28;20058;-84
2022/04/05 07:58:47;;;;;;;10.73;4.15;;;;;;;7.99;37.76;98538.13;4996333;28;20058;-85
2022/04/05 08:01:14;;;;;;;5.85;4.18;;;;;;;8.09;37.26;98543.28;4997520;28;20149;-86
2022/04/05 08:03:41;;;;;;;8.52;4.60;;;;;;;7.96;37.27;98527.75;4998379;28;20105;-85
2022/04/05 08:06:08;;;;;;;7.53;4.45;;;;;;;7.98;36.83;98543.34;4980478;28;20508;-83
2022/04/05 08:08:35;;;;;;;6.80;4.32;;;;;;;8.15;37.06;98543.19;4979502;28;20085;-85
2022/04/05 08:11:22;;;;;;;7.15;4.20;;;;;;;8.39;36.59;98524.81;4982542;28;20057;-84
2022/04/05 08:13:49;;;;;;;8.02;3.92;;;;;;;8.57;36.18;98523.78;4998042;28;20069;-84
2022/04/05 08:16:16;;;;;;;6.50;4.55;;;;;;;8.59;36.15;98513.38;4978972;28;20146;-84
2022/04/05 08:18:43;;;;;;;6.80;4.10;;;;;;;8.15;35.96;98493.78;4962741;28;20054;-85
2022/04/05 08:21:10;;;;;;;5.55;4.00;;;;;;;8.00;36.33;98490.47;4999043;28;20054;-85
2022/04/05 08:23:38;;;;;;;6.95;3.95;;;;;;;7.67;36.61;98486.34;4998760;28;20054;-83
2022/04/05 08:26:06;;;;;;;6.05;3.95;;;;;;;7.33;37.55;98499.53;4999297;28;20050;-87
2022/04/05 08:28:34;;;;;;;6.32;3.85;;;;;;;7.38;38.14;98496.94;4950294;28;20594;-85
2022/04/05 08:31:02;;;;;;;7.40;4.18;;;;;;;7.67;37.73;98533.13;4999929;28;20101;-84
2022/04/05 08:33:29;;;;;;;8.52;4.43;;;;;;;7.69;37.87;98527.94;5000307;28;20050;-84
2022/04/05 08:35:56;;;;;;;6.00;4.30;;;;;;;7.69;37.64;98522.75;5002723;28;20488;-83
2022/04/05 08:38:45;;;;;;;8.52;4.30;;;;;;;7.80;37.68;98519.19;4996444;28;20086;-83
2022/04/05 08:41:20;;;;;;;8.15;4.30;;;;;;;7.18;38.11;98419.13;4978483;28;20515;-84
2022/04/05 08:43:49;;;;;;;6.72;3.83;;;;;;;7.75;37.09;98504.50;4996806;28;20089;-85
2022/04/05 08:46:19;;;;;;;6.25;4.10;;;;;;;7.58;37.13;98489.03;4997059;28;20050;-85
2022/04/05 08:48:48;;;;;;;5.97;3.85;;;;;;;7.63;37.49;98450.88;4995072;28;20058;-85
2022/04/05 08:51:15;;;;;;;5.75;3.70;;;;;;;8.18;36.67;98502.44;4995645;28;20117;-84
2022/04/05 08:53:42;;;;;;;7.32;3.80;;;;;;;7.96;36.00;98509.56;4995561;28;20499;-84
2022/04/05 08:56:09;;;;;;;8.82;4.10;;;;;;;8.16;36.46;98487.72;4995078;28;20504;-85
2022/04/05 08:58:38;;;;;;;6.32;3.70;;;;;;;8.48;35.37;98482.25;4977219;28;20053;-84
2022/04/05 09:01:05;;;;;;;6.97;3.50;;;;;;;8.29;35.22;98491.06;4995044;28;20129;-85
2022/04/05 09:03:33;;;;;;;4.57;3.55;;;;;;;7.77;35.39;98477.63;4994967;28;20132;-86
2022/04/05 09:06:23;;;;;;;5.95;3.45;;;;;;;7.66;36.02;98489.84;4994958;28;20065;-84
2022/04/05 09:08:50;;;;;;;6.15;4.00;;;;;;;7.63;36.54;98450.88;4994523;28;20471;-86
2022/04/05 09:11:20;;;;;;;7.55;3.80;;;;;;;7.92;36.37;98502.66;4945137;28;20435;-85
2022/04/05 09:13:59;;;;;;;4.55;3.38;;;;;;;7.83;36.42;98487.13;4995179;28;20054;-85
2022/04/05 09:16:32;;;;;;;6.07;3.40;;;;;;;7.80;36.15;98466.34;4995500;28;20050;-85
2022/04/05 09:19:14;;;;;;;6.35;3.70;;;;;;;8.02;36.10;98479.16;4977608;28;20050;-85
2022/04/05 09:21:51;;;;;;;6.45;3.72;;;;;;;7.77;36.67;98482.81;4977674;28;20055;-86
2022/04/05 09:24:19;;;;;;;7.93;3.75;;;;;;;7.80;36.86;98469.78;4995742;28;20494;-84
2022/04/05 09:26:48;;;;;;;6.20;3.45;;;;;;;8.19;35.73;98472.97;4995559;28;20054;-85
2022/04/05 09:29:16;;;;;;;4.43;3.25;;;;;;;8.32;35.99;98491.88;4996260;28;20510;-84
2022/04/05 09:31:48;;;;;;;5.30;3.40;;;;;;;8.61;34.99;98472.56;4995905;28;20082;-84
2022/04/05 09:34:19;;;;;;;6.78;3.13;;;;;;;8.59;34.19;98443.09;4979467;28;20146;-85
2022/04/05 09:36:51;;;;;;;4.63;3.03;;;;;;;8.34;33.96;98406.88;4993126;28;20034;-87
2022/04/05 09:39:24;;;;;;;7.53;3.25;;;;;;;8.60;34.16;98455.22;5018477;28;20039;-86
2022/04/05 09:42:03;;;;;;;4.93;3.10;;;;;;;8.39;34.55;98436.31;4982580;28;20117;-85
2022/04/05 09:44:32;;;;;;;4.68;2.90;;;;;;;8.26;34.24;98410.44;4976860;28;20557;-85
2022/04/05 09:47:11;;;;;;;5.03;3.28;;;;;;;8.15;34.66;98439.16;4994429;28;20092;-85
2022/04/05 09:49:44;;;;;;;3.15;2.65;;;;;;;8.04;34.51;98449.66;4982742;28;20046;-86
2022/04/05 09:52:32;;;;;;;3.35;2.80;;;;;;;7.88;34.24;98416.88;4994556;28;20076;-84
2022/04/05 09:55:14;;;;;;;5.97;3.63;;;;;;;7.87;34.57;98442.03;4979256;28;20054;-83
2022/04/05 09:57:43;;;;;;;5.72;2.80;;;;;;;8.14;34.29;98451.31;4994020;28;20504;-84
2022/04/05 10:00:18;;;;;;;3.78;2.50;;;;;;;8.07;32.61;98425.38;4995253;28;20109;-84
2022/04/05 10:03:18;;;;;;;5.35;2.70;;;;;;;7.53;33.86;98340.09;4995627;28;20054;-85
2022/04/05 10:05:53;;;;;;;6.00;2.88;;;;;;;8.06;33.57;98449.66;4911130;28;20477;-83
2022/04/05 10:08:21;;;;;;;5.10;3.00;;;;;;;8.00;33.65;98399.44;4995326;28;20058;-84
2022/04/05 10:10:49;;;;;;;5.53;3.17;;;;;;;8.34;33.51;98425.09;4977003;28;20085;-83
2022/04/05 10:13:16;;;;;;;5.70;2.95;;;;;;;8.36;33.66;98431.13;4978880;28;20058;-84
2022/04/05 10:15:47;;;;;;;6.80;3.30;;;;;;;8.10;34.42;98434.00;4982906;28;20053;-83
2022/04/05 10:18:21;;;;;;;3.88;3.13;;;;;;;7.74;33.74;98352.00;4979457;28;20054;-83
2022/04/05 10:20:49;;;;;;;3.92;2.97;;;;;;;7.83;33.51;98418.66;4994582;28;20054;-86
2022/04/05 10:23:22;;;;;;;3.95;2.92;;;;;;;7.54;33.05;98370.38;4994004;28;20516;-86
2022/04/05 10:25:52;;;;;;;5.03;2.90;;;;;;;7.66;33.57;98372.00;4994073;28;20057;-85
2022/04/05 10:28:24;;;;;;;4.88;3.28;;;;;;;7.91;32.66;98411.66;4994049;28;20530;-83
2022/04/05 10:31:07;;;;;;;6.30;2.85;;;;;;;7.58;33.08;98359.94;4993912;28;20526;-85
2022/04/05 10:33:49;;;;;;;8.70;3.47;;;;;;;8.06;33.10;98406.31;4996490;28;20149;-84
2022/04/05 10:36:24;;;;;;;3.70;2.90;;;;;;;7.97;32.93;98388.19;4981904;28;20153;-84
2022/04/05 10:39:22;;;;;;;11.52;3.65;;;;;;;8.02;33.82;98401.16;4980050;28;20479;-83
2022/04/05 10:42:08;;;;;;;6.35;3.47;;;;;;;8.29;34.57;98407.81;4990181;28;20150;-85
2022/04/05 10:44:36;;;;;;;4.97;3.38;;;;;;;8.31;33.04;98382.66;4989625;28;20086;-86
2022/04/05 10:47:06;;;;;;;6.38;3.30;;;;;;;8.36;33.37;98383.44;4999944;28;20153;-87
2022/04/05 10:49:56;;;;;;;7.72;3.72;;;;;;;8.35;33.97;98394.75;4981755;28;20496;-90
2022/04/05 10:52:27;;;;;;;5.03;3.50;;;;;;;8.47;33.91;98401.56;4982401;28;20050;-86
2022/04/05 10:55:01;;;;;;;5.47;3.45;;;;;;;8.45;34.35;98398.97;4999237;28;20404;-87
2022/04/05 10:57:30;;;;;;;5.30;3.65;;;;;;;8.18;34.51;98395.78;4983482;28;20054;-88
2022/04/05 11:00:25;;;;;;;5.25;3.72;;;;;;;8.18;34.70;98372.38;5001087;28;20192;-90
2022/04/05 11:03:00;;;;;;;6.57;3.50;;;;;;;8.14;34.39;98395.84;4951776;28;20065;-89
2022/04/05 11:05:36;;;;;;;4.18;3.10;;;;;;;8.18;34.93;98387.97;4976544;28;20114;-88
2022/04/05 11:08:13;;;;;;;6.50;2.95;;;;;;;7.87;33.92;98361.44;4981884;28;20372;-90
2022/04/05 11:10:41;;;;;;;6.82;3.38;;;;;;;7.93;35.44;98389.09;4999998;28;20050;-88
2022/04/05 11:13:13;;;;;;;5.85;3.20;;;;;;;8.08;34.75;98380.28;4983724;28;20132;-87
2022/04/05 11:15:54;;;;;;;5.63;3.40;;;;;;;8.28;34.56;98391.34;4987279;28;20065;-90
2022/04/05 11:18:24;;;;;;;5.43;3.28;;;;;;;8.33;34.72;98339.25;4996240;28;20062;-86
2022/04/05 11:20:54;;;;;;;5.17;3.37;;;;;;;8.72;34.54;98370.91;5000549;28;20094;-87
2022/04/05 11:23:42;;;;;;;5.25;3.10;;;;;;;8.54;34.40;98340.75;4949969;28;20062;-86
2022/04/05 11:26:28;;;;;;;5.45;3.28;;;;;;;8.45;34.59;98367.75;4999361;28;20057;-86
2022/04/05 11:28:57;;;;;;;8.25;3.50;;;;;;;8.18;34.83;98377.56;4978556;28;20045;-88
2022/04/05 11:31:34;;;;;;;7.70;3.33;;;;;;;7.72;34.73;98306.97;4990057;28;20066;-87
2022/04/05 11:34:33;;;;;;;6.10;3.45;;;;;;;7.98;35.07;98358.72;4964948;28;20051;-88
2022/04/05 11:37:00;;;;;;;6.43;3.30;;;;;;;7.77;35.22;98373.66;4977534;28;20077;-86
2022/04/05 11:39:27;;;;;;;8.00;3.65;;;;;;;7.88;34.87;98354.50;4978964;28;20078;-86
2022/04/05 11:41:59;;;;;;;5.22;3.10;;;;;;;7.80;34.83;98357.16;4961238;28;20516;-86
2022/04/05 11:44:27;;;;;;;5.05;3.45;;;;;;;7.83;34.80;98351.06;4944590;28;20055;-88
2022/04/05 11:46:58;;;;;;;6.47;3.30;;;;;;;7.67;35.17;98378.94;4978224;28;20145;-87
2022/04/05 11:49:26;;;;;;;4.07;3.65;;;;;;;7.50;35.91;98358.28;4945163;28;20051;-87
2022/04/05 11:51:54;;;;;;;6.68;3.55;;;;;;;7.79;35.54;98365.84;4962162;28;20105;-85
2022/04/05 11:54:24;;;;;;;6.15;3.70;;;;;;;7.68;35.43;98375.44;4947245;28;20053;-86
2022/04/05 11:56:52;;;;;;;6.75;3.60;;;;;;;7.21;35.56;98307.44;4990495;28;20067;-86
2022/04/05 11:59:27;;;;;;;3.88;3.17;;;;;;;7.23;35.72;98315.19;4987026;28;20063;-84
2022/04/05 12:01:54;;;;;;;7.60;3.70;;;;;;;7.42;35.87;98373.06;4988964;28;20082;-86
2022/04/05 12:04:37;;;;;;;7.90;4.00;;;;;;;7.21;36.16;98315.22;4971314;28;20054;-85
2022/04/05 12:07:14;;;;;;;6.53;3.88;;;;;;;7.20;36.10;98355.03;4971037;28;20074;-84
2022/04/05 12:09:41;;;;;;;8.68;3.88;;;;;;;7.31;36.41;98339.38;4986297;28;20051;-84
2022/04/05 12:12:10;;;;;;;8.73;4.32;;;;;;;6.90;36.39;98284.28;4995332;28;20046;-84